sensor_id;sensor_type;location;lat;lon;timestamp;pressure;altitude;pressure_sealevel;temperature;humidity
75166;BME280;63747;48.042;10.088;2022-10-31T00:00:22;95701.00;;;9.22;70.07
75166;BME280;63747;48.042;10.088;2022-10-31T00:03:23;95705.75;;;9.18;70.02
75166;BME280;63747;48.042;10.088;2022-10-31T00:06:24;95700.06;;;9.13;70.07
75166;BME280;63747;48.042;10.088;2022-10-31T00:09:25;95699.91;;;9.15;70.24
75166;BME280;63747;48.042;10.088;2022-10-31T00:12:26;95702.72;;;9.13;70.28
75166;BME280;63747;48.042;10.088;2022-10-31T00:15:27;95694.63;;;9.15;70.10
75166;BME280;63747;48.042;10.088;2022-10-31T00:18:27;95696.59;;;9.13;70.19
75166;BME280;63747;48.042;10.088;2022-10-31T00:21:29;95696.38;;;9.06;70.31
75166;BME280;63747;48.042;10.088;2022-10-31T00:24:30;95696.84;;;9.02;70.37
75166;BME280;63747;48.042;10.088;2022-10-31T00:27:31;95694.22;;;9.02;70.38
75166;BME280;63747;48.042;10.088;2022-10-31T00:30:35;95687.53;;;8.97;70.35
75166;BME280;63747;48.042;10.088;2022-10-31T00:33:37;95686.88;;;8.95;70.63
75166;BME280;63747;48.042;10.088;2022-10-31T00:36:38;95691.19;;;8.96;70.42
75166;BME280;63747;48.042;10.088;2022-10-31T00:39:38;95687.84;;;8.94;70.30
75166;BME280;63747;48.042;10.088;2022-10-31T00:42:40;95681.81;;;8.84;70.42
75166;BME280;63747;48.042;10.088;2022-10-31T00:45:42;95691.31;;;8.77;70.59
75166;BME280;63747;48.042;10.088;2022-10-31T00:48:43;95691.53;;;8.66;70.32
75166;BME280;63747;48.042;10.088;2022-10-31T00:51:43;95696.16;;;8.64;70.38
75166;BME280;63747;48.042;10.088;2022-10-31T00:54:44;95683.91;;;8.63;70.39
75166;BME280;63747;48.042;10.088;2022-10-31T00:57:48;95686.41;;;8.64;70.39
75166;BME280;63747;48.042;10.088;2022-10-31T01:00:49;95691.09;;;8.70;70.33
75166;BME280;63747;48.042;10.088;2022-10-31T01:03:59;95688.88;;;8.66;70.44
75166;BME280;63747;48.042;10.088;2022-10-31T01:06:59;95686.94;;;8.68;70.43
75166;BME280;63747;48.042;10.088;2022-10-31T01:10:00;95689.44;;;8.69;70.46
75166;BME280;63747;48.042;10.088;2022-10-31T01:13:01;95681.78;;;8.66;70.75
75166;BME280;63747;48.042;10.088;2022-10-31T01:16:04;95679.16;;;8.66;70.52
75166;BME280;63747;48.042;10.088;2022-10-31T01:19:05;95683.31;;;8.69;70.53
75166;BME280;63747;48.042;10.088;2022-10-31T01:22:05;95678.31;;;8.66;70.65
75166;BME280;63747;48.042;10.088;2022-10-31T01:25:08;95675.31;;;8.61;70.64
75166;BME280;63747;48.042;10.088;2022-10-31T01:28:09;95677.56;;;8.56;70.70
75166;BME280;63747;48.042;10.088;2022-10-31T01:31:10;95679.50;;;8.54;70.85
75166;BME280;63747;48.042;10.088;2022-10-31T01:34:15;95676.88;;;8.54;71.13
75166;BME280;63747;48.042;10.088;2022-10-31T01:37:16;95680.22;;;8.56;70.89
75166;BME280;63747;48.042;10.088;2022-10-31T01:40:17;95678.16;;;8.50;70.96
75166;BME280;63747;48.042;10.088;2022-10-31T01:43:18;95672.63;;;8.43;71.19
75166;BME280;63747;48.042;10.088;2022-10-31T01:49:46;95672.31;;;8.46;71.33
75166;BME280;63747;48.042;10.088;2022-10-31T01:52:49;95666.53;;;8.42;71.09
75166;BME280;63747;48.042;10.088;2022-10-31T01:55:51;95670.91;;;8.34;71.28
75166;BME280;63747;48.042;10.088;2022-10-31T01:58:54;95664.06;;;8.31;71.56
75166;BME280;63747;48.042;10.088;2022-10-31T02:01:57;95666.03;;;8.29;71.31
75166;BME280;63747;48.042;10.088;2022-10-31T02:05:00;95666.78;;;8.22;71.48
75166;BME280;63747;48.042;10.088;2022-10-31T02:08:10;95666.78;;;8.22;71.53
75166;BME280;63747;48.042;10.088;2022-10-31T02:11:13;95664.66;;;8.25;71.61
75166;BME280;63747;48.042;10.088;2022-10-31T02:14:14;95672.44;;;8.27;71.49
75166;BME280;63747;48.042;10.088;2022-10-31T02:17:15;95671.47;;;8.28;71.32
75166;BME280;63747;48.042;10.088;2022-10-31T02:20:19;95666.31;;;8.26;71.40
75166;BME280;63747;48.042;10.088;2022-10-31T02:23:38;95665.50;;;8.26;71.30
75166;BME280;63747;48.042;10.088;2022-10-31T02:27:03;95664.00;;;8.23;71.36
75166;BME280;63747;48.042;10.088;2022-10-31T02:30:20;95666.91;;;8.20;71.47
75166;BME280;63747;48.042;10.088;2022-10-31T02:33:47;95663.59;;;8.18;71.26
75166;BME280;63747;48.042;10.088;2022-10-31T02:36:58;95666.41;;;8.16;71.04
75166;BME280;63747;48.042;10.088;2022-10-31T02:40:23;95669.47;;;8.12;71.13
75166;BME280;63747;48.042;10.088;2022-10-31T02:47:01;95677.59;;;8.01;71.26
75166;BME280;63747;48.042;10.088;2022-10-31T02:50:12;95660.94;;;8.00;71.37
75166;BME280;63747;48.042;10.088;2022-10-31T02:53:15;95663.69;;;7.99;71.14
75166;BME280;63747;48.042;10.088;2022-10-31T02:56:18;95670.94;;;7.97;70.98
75166;BME280;63747;48.042;10.088;2022-10-31T02:59:19;95672.34;;;7.91;71.02
75166;BME280;63747;48.042;10.088;2022-10-31T03:09:32;95667.66;;;7.85;71.00
75166;BME280;63747;48.042;10.088;2022-10-31T03:12:49;95673.22;;;7.82;70.84
75166;BME280;63747;48.042;10.088;2022-10-31T03:19:11;95673.81;;;7.76;70.95
75166;BME280;63747;48.042;10.088;2022-10-31T03:22:21;95670.72;;;7.71;70.76
75166;BME280;63747;48.042;10.088;2022-10-31T03:25:23;95673.09;;;7.64;70.93
75166;BME280;63747;48.042;10.088;2022-10-31T03:28:29;95673.69;;;7.58;71.01
75166;BME280;63747;48.042;10.088;2022-10-31T03:31:35;95678.28;;;7.56;71.20
75166;BME280;63747;48.042;10.088;2022-10-31T03:34:42;95669.38;;;7.57;71.30
75166;BME280;63747;48.042;10.088;2022-10-31T03:37:44;95668.84;;;7.53;71.23
75166;BME280;63747;48.042;10.088;2022-10-31T03:40:48;95666.22;;;7.53;71.25
75166;BME280;63747;48.042;10.088;2022-10-31T03:43:55;95667.03;;;7.54;71.30
75166;BME280;63747;48.042;10.088;2022-10-31T03:46:58;95662.03;;;7.51;71.21
75166;BME280;63747;48.042;10.088;2022-10-31T03:49:59;95658.88;;;7.47;71.40
75166;BME280;63747;48.042;10.088;2022-10-31T03:53:14;95668.59;;;7.47;71.37
75166;BME280;63747;48.042;10.088;2022-10-31T03:56:23;95666.94;;;7.46;71.21
75166;BME280;63747;48.042;10.088;2022-10-31T03:59:32;95668.84;;;7.44;71.28
75166;BME280;63747;48.042;10.088;2022-10-31T04:02:35;95659.44;;;7.41;71.20
75166;BME280;63747;48.042;10.088;2022-10-31T04:05:38;95665.81;;;7.39;70.99
75166;BME280;63747;48.042;10.088;2022-10-31T04:08:51;95661.41;;;7.29;71.52
75166;BME280;63747;48.042;10.088;2022-10-31T04:11:55;95661.69;;;7.26;71.58
75166;BME280;63747;48.042;10.088;2022-10-31T04:14:57;95656.00;;;7.21;71.72
75166;BME280;63747;48.042;10.088;2022-10-31T04:17:59;95657.53;;;7.14;71.89
75166;BME280;63747;48.042;10.088;2022-10-31T04:21:04;95656.97;;;7.11;71.90
75166;BME280;63747;48.042;10.088;2022-10-31T04:24:05;95661.00;;;7.05;72.06
75166;BME280;63747;48.042;10.088;2022-10-31T04:27:06;95656.44;;;7.07;72.07
75166;BME280;63747;48.042;10.088;2022-10-31T04:30:08;95651.19;;;7.07;71.97
75166;BME280;63747;48.042;10.088;2022-10-31T04:33:09;95649.53;;;7.06;71.81
75166;BME280;63747;48.042;10.088;2022-10-31T04:36:09;95648.13;;;7.02;71.99
75166;BME280;63747;48.042;10.088;2022-10-31T04:39:10;95649.78;;;7.03;71.85
75166;BME280;63747;48.042;10.088;2022-10-31T04:42:11;95651.59;;;7.02;71.82
75166;BME280;63747;48.042;10.088;2022-10-31T04:45:11;95646.72;;;6.98;71.71
75166;BME280;63747;48.042;10.088;2022-10-31T04:48:12;95639.53;;;7.00;71.60
75166;BME280;63747;48.042;10.088;2022-10-31T04:51:13;95632.47;;;7.00;71.65
75166;BME280;63747;48.042;10.088;2022-10-31T04:54:14;95634.66;;;6.95;71.60
75166;BME280;63747;48.042;10.088;2022-10-31T04:57:14;95631.75;;;6.89;71.61
75166;BME280;63747;48.042;10.088;2022-10-31T05:00:17;95635.53;;;6.86;71.96
75166;BME280;63747;48.042;10.088;2022-10-31T05:03:18;95632.59;;;6.89;71.82
75166;BME280;63747;48.042;10.088;2022-10-31T05:06:19;95632.31;;;6.83;71.86
75166;BME280;63747;48.042;10.088;2022-10-31T05:09:20;95627.59;;;6.76;71.98
75166;BME280;63747;48.042;10.088;2022-10-31T05:12:20;95630.38;;;6.75;72.05
75166;BME280;63747;48.042;10.088;2022-10-31T05:15:23;95626.78;;;6.76;72.11
75166;BME280;63747;48.042;10.088;2022-10-31T05:18:24;95620.00;;;6.73;72.09
75166;BME280;63747;48.042;10.088;2022-10-31T05:21:25;95621.81;;;6.73;71.99
75166;BME280;63747;48.042;10.088;2022-10-31T05:24:25;95616.69;;;6.71;72.18
75166;BME280;63747;48.042;10.088;2022-10-31T05:27:26;95616.94;;;6.68;71.89
75166;BME280;63747;48.042;10.088;2022-10-31T05:30:30;95615.81;;;6.71;71.94
75166;BME280;63747;48.042;10.088;2022-10-31T05:33:31;95620.69;;;6.66;71.84
75166;BME280;63747;48.042;10.088;2022-10-31T05:36:31;95613.19;;;6.61;71.96
75166;BME280;63747;48.042;10.088;2022-10-31T05:39:32;95612.09;;;6.64;72.00
75166;BME280;63747;48.042;10.088;2022-10-31T05:42:33;95608.50;;;6.65;71.92
75166;BME280;63747;48.042;10.088;2022-10-31T05:45:34;95605.00;;;6.64;71.64
75166;BME280;63747;48.042;10.088;2022-10-31T05:48:34;95612.22;;;6.62;71.92
75166;BME280;63747;48.042;10.088;2022-10-31T05:51:35;95607.25;;;6.59;71.61
75166;BME280;63747;48.042;10.088;2022-10-31T05:54:35;95606.84;;;6.54;71.76
75166;BME280;63747;48.042;10.088;2022-10-31T05:57:36;95590.59;;;6.49;71.90
75166;BME280;63747;48.042;10.088;2022-10-31T06:00:37;95599.63;;;6.46;71.99
75166;BME280;63747;48.042;10.088;2022-10-31T06:03:37;95599.78;;;6.45;72.15
75166;BME280;63747;48.042;10.088;2022-10-31T06:06:38;95595.44;;;6.44;72.08
75166;BME280;63747;48.042;10.088;2022-10-31T06:09:39;95594.22;;;6.48;71.82
75166;BME280;63747;48.042;10.088;2022-10-31T06:12:39;95602.94;;;6.48;71.78
75166;BME280;63747;48.042;10.088;2022-10-31T06:15:43;95599.34;;;6.40;72.14
75166;BME280;63747;48.042;10.088;2022-10-31T06:18:45;95595.88;;;6.39;72.11
75166;BME280;63747;48.042;10.088;2022-10-31T06:21:46;95604.47;;;6.32;72.28
75166;BME280;63747;48.042;10.088;2022-10-31T06:24:47;95599.06;;;6.33;72.55
75166;BME280;63747;48.042;10.088;2022-10-31T06:27:48;95610.41;;;6.43;72.11
75166;BME280;63747;48.042;10.088;2022-10-31T06:30:49;95606.25;;;6.50;71.87
75166;BME280;63747;48.042;10.088;2022-10-31T06:33:49;95606.84;;;6.54;71.76
75166;BME280;63747;48.042;10.088;2022-10-31T06:36:50;95616.81;;;6.60;71.67
75166;BME280;63747;48.042;10.088;2022-10-31T06:39:52;95604.06;;;6.65;71.48
75166;BME280;63747;48.042;10.088;2022-10-31T06:42:59;95613.34;;;6.69;71.66
75166;BME280;63747;48.042;10.088;2022-10-31T06:46:04;95612.63;;;6.77;71.68
75166;BME280;63747;48.042;10.088;2022-10-31T06:49:05;95613.72;;;6.84;71.63
75166;BME280;63747;48.042;10.088;2022-10-31T06:52:06;95614.72;;;6.93;71.61
75166;BME280;63747;48.042;10.088;2022-10-31T06:55:07;95609.25;;;7.04;71.49
75166;BME280;63747;48.042;10.088;2022-10-31T06:58:09;95609.25;;;7.14;71.54
75166;BME280;63747;48.042;10.088;2022-10-31T07:01:10;95613.81;;;7.21;71.57
75166;BME280;63747;48.042;10.088;2022-10-31T07:04:11;95607.09;;;7.37;71.66
75166;BME280;63747;48.042;10.088;2022-10-31T07:07:12;95605.53;;;7.53;71.60
75166;BME280;63747;48.042;10.088;2022-10-31T07:10:13;95608.38;;;7.70;71.54
75166;BME280;63747;48.042;10.088;2022-10-31T07:13:14;95617.75;;;7.92;71.48
75166;BME280;63747;48.042;10.088;2022-10-31T07:16:15;95607.75;;;8.13;71.54
75166;BME280;63747;48.042;10.088;2022-10-31T07:19:17;95608.78;;;8.30;71.32
75166;BME280;63747;48.042;10.088;2022-10-31T07:22:18;95607.25;;;8.45;71.17
75166;BME280;63747;48.042;10.088;2022-10-31T07:25:19;95598.47;;;8.54;71.26
75166;BME280;63747;48.042;10.088;2022-10-31T07:28:19;95609.59;;;8.66;71.02
75166;BME280;63747;48.042;10.088;2022-10-31T07:31:21;95619.56;;;8.72;71.04
75166;BME280;63747;48.042;10.088;2022-10-31T07:34:22;95615.13;;;8.90;71.13
75166;BME280;63747;48.042;10.088;2022-10-31T07:37:27;95614.56;;;9.05;71.05
75166;BME280;63747;48.042;10.088;2022-10-31T07:40:28;95611.88;;;9.22;71.02
75166;BME280;63747;48.042;10.088;2022-10-31T07:43:28;95610.53;;;9.36;71.12
75166;BME280;63747;48.042;10.088;2022-10-31T07:46:29;95609.94;;;9.50;70.62
75166;BME280;63747;48.042;10.088;2022-10-31T07:49:30;95618.59;;;9.61;70.77
75166;BME280;63747;48.042;10.088;2022-10-31T07:52:40;95605.09;;;9.72;70.76
75166;BME280;63747;48.042;10.088;2022-10-31T07:55:53;95599.56;;;9.91;70.72
75166;BME280;63747;48.042;10.088;2022-10-31T07:58:54;95599.31;;;10.19;70.29
75166;BME280;63747;48.042;10.088;2022-10-31T08:01:54;95594.03;;;10.35;69.79
75166;BME280;63747;48.042;10.088;2022-10-31T08:04:55;95600.03;;;10.45;69.74
75166;BME280;63747;48.042;10.088;2022-10-31T08:07:56;95589.63;;;10.52;69.59
75166;BME280;63747;48.042;10.088;2022-10-31T08:11:06;95590.16;;;10.72;69.00
75166;BME280;63747;48.042;10.088;2022-10-31T08:14:06;95583.34;;;10.77;68.54
75166;BME280;63747;48.042;10.088;2022-10-31T08:17:07;95581.88;;;10.83;68.77
75166;BME280;63747;48.042;10.088;2022-10-31T08:20:08;95581.84;;;10.91;68.50
75166;BME280;63747;48.042;10.088;2022-10-31T08:23:11;95572.25;;;11.06;68.87
75166;BME280;63747;48.042;10.088;2022-10-31T08:26:12;95575.22;;;11.20;68.51
75166;BME280;63747;48.042;10.088;2022-10-31T08:29:13;95584.66;;;11.30;67.90
75166;BME280;63747;48.042;10.088;2022-10-31T08:32:14;95582.81;;;11.47;67.91
75166;BME280;63747;48.042;10.088;2022-10-31T08:35:15;95570.81;;;11.67;67.66
75166;BME280;63747;48.042;10.088;2022-10-31T08:38:16;95578.66;;;11.92;67.51
75166;BME280;63747;48.042;10.088;2022-10-31T08:41:16;95571.31;;;12.10;66.79
75166;BME280;63747;48.042;10.088;2022-10-31T08:44:17;95572.53;;;12.31;66.48
75166;BME280;63747;48.042;10.088;2022-10-31T08:47:17;95568.84;;;12.32;66.00
75166;BME280;63747;48.042;10.088;2022-10-31T08:50:18;95567.09;;;12.47;65.87
75166;BME280;63747;48.042;10.088;2022-10-31T08:53:19;95570.56;;;12.56;65.84
75166;BME280;63747;48.042;10.088;2022-10-31T08:56:20;95569.66;;;12.63;65.38
75166;BME280;63747;48.042;10.088;2022-10-31T08:59:22;95564.31;;;12.86;65.41
75166;BME280;63747;48.042;10.088;2022-10-31T09:02:23;95565.03;;;13.03;64.79
75166;BME280;63747;48.042;10.088;2022-10-31T09:05:24;95558.56;;;13.20;64.29
75166;BME280;63747;48.042;10.088;2022-10-31T09:08:25;95556.50;;;13.30;64.68
75166;BME280;63747;48.042;10.088;2022-10-31T09:11:25;95550.34;;;13.45;63.90
75166;BME280;63747;48.042;10.088;2022-10-31T09:14:26;95553.94;;;13.52;63.90
75166;BME280;63747;48.042;10.088;2022-10-31T09:17:27;95546.94;;;13.66;63.64
75166;BME280;63747;48.042;10.088;2022-10-31T09:20:29;95544.38;;;13.72;63.70
75166;BME280;63747;48.042;10.088;2022-10-31T09:23:30;95548.91;;;13.57;63.07
75166;BME280;63747;48.042;10.088;2022-10-31T09:26:33;95542.84;;;13.63;63.30
75166;BME280;63747;48.042;10.088;2022-10-31T09:29:33;95547.44;;;13.69;62.93
75166;BME280;63747;48.042;10.088;2022-10-31T09:32:34;95554.22;;;13.57;63.27
75166;BME280;63747;48.042;10.088;2022-10-31T09:35:35;95543.56;;;13.72;62.46
75166;BME280;63747;48.042;10.088;2022-10-31T09:38:36;95546.94;;;13.80;62.40
75166;BME280;63747;48.042;10.088;2022-10-31T09:45:36;95547.91;;;14.09;62.63
75166;BME280;63747;48.042;10.088;2022-10-31T09:49:00;95552.06;;;14.11;63.45
75166;BME280;63747;48.042;10.088;2022-10-31T09:52:23;95556.09;;;14.22;63.53
75166;BME280;63747;48.042;10.088;2022-10-31T09:55:40;95543.22;;;14.26;62.08
75166;BME280;63747;48.042;10.088;2022-10-31T09:58:46;95544.50;;;14.30;61.80
75166;BME280;63747;48.042;10.088;2022-10-31T10:01:56;95543.19;;;14.40;61.23
75166;BME280;63747;48.042;10.088;2022-10-31T10:05:02;95539.22;;;14.36;61.89
75166;BME280;63747;48.042;10.088;2022-10-31T10:17:39;95531.84;;;14.75;58.29
75166;BME280;63747;48.042;10.088;2022-10-31T10:31:23;95516.91;;;15.08;58.63
75166;BME280;63747;48.042;10.088;2022-10-31T10:34:39;95504.69;;;15.20;58.56
75166;BME280;63747;48.042;10.088;2022-10-31T10:37:44;95508.34;;;15.41;59.73
75166;BME280;63747;48.042;10.088;2022-10-31T10:40:47;95507.38;;;15.48;59.08
75166;BME280;63747;48.042;10.088;2022-10-31T10:43:51;95515.75;;;15.39;58.53
75166;BME280;63747;48.042;10.088;2022-10-31T10:46:59;95511.47;;;15.51;58.73
75166;BME280;63747;48.042;10.088;2022-10-31T10:50:22;95510.78;;;15.70;57.89
75166;BME280;63747;48.042;10.088;2022-10-31T10:53:54;95506.69;;;15.74;58.11
75166;BME280;63747;48.042;10.088;2022-10-31T11:00:43;95509.41;;;16.29;57.53
75166;BME280;63747;48.042;10.088;2022-10-31T11:03:46;95502.22;;;16.36;57.54
75166;BME280;63747;48.042;10.088;2022-10-31T11:06:57;95501.84;;;16.66;56.55
75166;BME280;63747;48.042;10.088;2022-10-31T11:10:05;95495.91;;;16.64;55.63
75166;BME280;63747;48.042;10.088;2022-10-31T11:16:37;95488.88;;;16.56;56.44
75166;BME280;63747;48.042;10.088;2022-10-31T11:19:36;95487.28;;;16.88;56.15
75166;BME280;63747;48.042;10.088;2022-10-31T11:22:37;95485.44;;;17.15;55.66
75166;BME280;63747;48.042;10.088;2022-10-31T11:25:38;95485.59;;;17.40;55.33
75166;BME280;63747;48.042;10.088;2022-10-31T11:28:39;95478.38;;;17.40;54.47
75166;BME280;63747;48.042;10.088;2022-10-31T11:31:40;95479.63;;;17.45;55.25
75166;BME280;63747;48.042;10.088;2022-10-31T11:34:43;95476.72;;;17.53;54.45
75166;BME280;63747;48.042;10.088;2022-10-31T11:37:47;95476.94;;;17.51;54.51
75166;BME280;63747;48.042;10.088;2022-10-31T11:40:53;95468.66;;;17.59;54.40
75166;BME280;63747;48.042;10.088;2022-10-31T11:44:00;95457.97;;;18.11;53.16
75166;BME280;63747;48.042;10.088;2022-10-31T11:47:04;95451.56;;;18.50;52.94
75166;BME280;63747;48.042;10.088;2022-10-31T11:50:11;95449.97;;;18.67;52.28
75166;BME280;63747;48.042;10.088;2022-10-31T11:53:29;95447.78;;;18.58;52.25
75166;BME280;63747;48.042;10.088;2022-10-31T11:56:38;95435.94;;;18.65;53.13
75166;BME280;63747;48.042;10.088;2022-10-31T11:59:39;95434.56;;;18.88;53.02
75166;BME280;63747;48.042;10.088;2022-10-31T12:02:51;95433.34;;;18.84;52.78
75166;BME280;63747;48.042;10.088;2022-10-31T12:06:12;95439.06;;;18.94;53.25
75166;BME280;63747;48.042;10.088;2022-10-31T12:09:21;95431.53;;;19.02;52.45
75166;BME280;63747;48.042;10.088;2022-10-31T12:12:26;95414.69;;;19.14;52.45
75166;BME280;63747;48.042;10.088;2022-10-31T12:15:34;95418.50;;;19.06;52.62
75166;BME280;63747;48.042;10.088;2022-10-31T12:22:46;95414.97;;;19.86;51.62
75166;BME280;63747;48.042;10.088;2022-10-31T12:29:21;95403.19;;;20.47;51.39
75166;BME280;63747;48.042;10.088;2022-10-31T12:39:40;95384.13;;;19.70;52.06
75166;BME280;63747;48.042;10.088;2022-10-31T12:43:09;95383.84;;;19.60;52.50
75166;BME280;63747;48.042;10.088;2022-10-31T12:46:51;95375.28;;;19.44;52.38
75166;BME280;63747;48.042;10.088;2022-10-31T12:57:20;95371.47;;;19.15;53.65
75166;BME280;63747;48.042;10.088;2022-10-31T13:00:24;95363.63;;;19.14;53.50
75166;BME280;63747;48.042;10.088;2022-10-31T13:03:32;95364.47;;;19.14;54.00
75166;BME280;63747;48.042;10.088;2022-10-31T13:06:38;95363.25;;;19.10;54.18
75166;BME280;63747;48.042;10.088;2022-10-31T13:09:48;95351.19;;;19.19;53.87
75166;BME280;63747;48.042;10.088;2022-10-31T13:12:55;95346.75;;;19.07;54.15
75166;BME280;63747;48.042;10.088;2022-10-31T13:16:01;95340.72;;;19.11;53.80
75166;BME280;63747;48.042;10.088;2022-10-31T13:19:20;95338.53;;;19.01;54.68
75166;BME280;63747;48.042;10.088;2022-10-31T13:22:26;95333.63;;;19.35;54.16
75166;BME280;63747;48.042;10.088;2022-10-31T13:25:33;95337.00;;;19.67;53.01
75166;BME280;63747;48.042;10.088;2022-10-31T13:28:43;95328.91;;;19.67;53.39
75166;BME280;63747;48.042;10.088;2022-10-31T13:31:45;95317.81;;;19.45;54.21
75166;BME280;63747;48.042;10.088;2022-10-31T13:34:47;95324.75;;;19.16;54.91
75166;BME280;63747;48.042;10.088;2022-10-31T13:45:22;95303.91;;;18.93;54.96
75166;BME280;63747;48.042;10.088;2022-10-31T13:48:41;95301.91;;;18.89;55.88
75166;BME280;63747;48.042;10.088;2022-10-31T13:51:42;95296.22;;;18.79;55.39
75166;BME280;63747;48.042;10.088;2022-10-31T13:54:47;95300.34;;;18.74;55.94
75166;BME280;63747;48.042;10.088;2022-10-31T13:57:49;95291.31;;;19.12;55.38
75166;BME280;63747;48.042;10.088;2022-10-31T14:01:21;95294.09;;;19.54;54.87
75166;BME280;63747;48.042;10.088;2022-10-31T14:07:28;95294.41;;;19.64;54.94
75166;BME280;63747;48.042;10.088;2022-10-31T14:10:38;95293.22;;;19.42;54.75
75166;BME280;63747;48.042;10.088;2022-10-31T14:13:46;95299.38;;;19.12;55.09
75166;BME280;63747;48.042;10.088;2022-10-31T14:16:51;95294.59;;;18.96;55.97
75166;BME280;63747;48.042;10.088;2022-10-31T14:26:35;95277.34;;;19.22;54.80
75166;BME280;63747;48.042;10.088;2022-10-31T14:29:36;95281.53;;;18.99;55.17
75166;BME280;63747;48.042;10.088;2022-10-31T14:32:37;95277.53;;;18.65;56.00
75166;BME280;63747;48.042;10.088;2022-10-31T14:39:18;95268.63;;;19.08;54.26
75166;BME280;63747;48.042;10.088;2022-10-31T14:42:38;95263.63;;;19.12;53.46
75166;BME280;63747;48.042;10.088;2022-10-31T14:52:17;95257.94;;;18.83;54.46
75166;BME280;63747;48.042;10.088;2022-10-31T14:55:19;95250.16;;;18.57;54.32
75166;BME280;63747;48.042;10.088;2022-10-31T14:58:45;95256.53;;;18.56;54.59
75166;BME280;63747;48.042;10.088;2022-10-31T15:01:54;95255.16;;;18.28;55.25
75166;BME280;63747;48.042;10.088;2022-10-31T15:04:57;95260.81;;;18.20;55.88
75166;BME280;63747;48.042;10.088;2022-10-31T15:07:58;95254.84;;;18.18;55.88
75166;BME280;63747;48.042;10.088;2022-10-31T15:11:02;95257.25;;;18.01;55.95
75166;BME280;63747;48.042;10.088;2022-10-31T15:17:25;95253.09;;;18.05;56.03
75166;BME280;63747;48.042;10.088;2022-10-31T15:20:28;95245.31;;;17.97;56.61
75166;BME280;63747;48.042;10.088;2022-10-31T15:23:31;95253.97;;;17.92;56.35
75166;BME280;63747;48.042;10.088;2022-10-31T15:26:37;95250.53;;;17.85;56.51
75166;BME280;63747;48.042;10.088;2022-10-31T15:29:52;95239.34;;;17.63;57.35
75166;BME280;63747;48.042;10.088;2022-10-31T15:32:53;95249.88;;;17.58;57.32
75166;BME280;63747;48.042;10.088;2022-10-31T15:35:55;95246.47;;;17.45;57.63
75166;BME280;63747;48.042;10.088;2022-10-31T15:38:59;95249.38;;;17.43;57.75
75166;BME280;63747;48.042;10.088;2022-10-31T15:42:00;95239.88;;;17.40;57.63
75166;BME280;63747;48.042;10.088;2022-10-31T15:48:21;95248.91;;;17.15;58.33
75166;BME280;63747;48.042;10.088;2022-10-31T15:51:30;95246.63;;;17.05;58.54
75166;BME280;63747;48.042;10.088;2022-10-31T15:54:32;95246.03;;;17.03;58.61
75166;BME280;63747;48.042;10.088;2022-10-31T15:57:33;95240.97;;;16.81;58.56
75166;BME280;63747;48.042;10.088;2022-10-31T16:00:35;95242.63;;;16.76;59.08
75166;BME280;63747;48.042;10.088;2022-10-31T16:03:37;95246.41;;;16.48;59.63
75166;BME280;63747;48.042;10.088;2022-10-31T16:06:41;95244.81;;;16.21;60.41
75166;BME280;63747;48.042;10.088;2022-10-31T16:12:53;95235.13;;;16.00;61.10
75166;BME280;63747;48.042;10.088;2022-10-31T16:15:56;95239.00;;;15.91;60.89
75166;BME280;63747;48.042;10.088;2022-10-31T16:18:59;95247.22;;;15.76;61.50
75166;BME280;63747;48.042;10.088;2022-10-31T16:22:06;95248.06;;;15.76;61.81
75166;BME280;63747;48.042;10.088;2022-10-31T16:25:12;95240.84;;;15.77;61.27
75166;BME280;63747;48.042;10.088;2022-10-31T16:28:19;95243.94;;;15.74;61.27
75166;BME280;63747;48.042;10.088;2022-10-31T16:31:38;95245.56;;;15.62;60.99
75166;BME280;63747;48.042;10.088;2022-10-31T16:34:39;95243.91;;;15.47;61.37
75166;BME280;63747;48.042;10.088;2022-10-31T16:37:40;95234.44;;;15.32;61.41
75166;BME280;63747;48.042;10.088;2022-10-31T16:40:41;95239.28;;;15.15;61.74
75166;BME280;63747;48.042;10.088;2022-10-31T16:43:42;95234.34;;;15.12;61.81
75166;BME280;63747;48.042;10.088;2022-10-31T16:46:43;95250.72;;;15.02;61.94
75166;BME280;63747;48.042;10.088;2022-10-31T16:49:47;95243.06;;;14.79;62.44
75166;BME280;63747;48.042;10.088;2022-10-31T16:52:48;95247.69;;;14.57;62.90
75166;BME280;63747;48.042;10.088;2022-10-31T16:55:57;95251.47;;;14.41;63.83
75166;BME280;63747;48.042;10.088;2022-10-31T16:59:01;95257.72;;;14.27;64.02
75166;BME280;63747;48.042;10.088;2022-10-31T17:02:04;95255.56;;;14.16;64.45
75166;BME280;63747;48.042;10.088;2022-10-31T17:05:05;95250.78;;;14.05;64.63
75166;BME280;63747;48.042;10.088;2022-10-31T17:08:06;95252.22;;;14.07;64.65
75166;BME280;63747;48.042;10.088;2022-10-31T17:11:17;95251.75;;;13.97;64.62
75166;BME280;63747;48.042;10.088;2022-10-31T17:14:19;95257.19;;;13.89;64.71
75166;BME280;63747;48.042;10.088;2022-10-31T17:17:21;95261.47;;;13.83;64.90
75166;BME280;63747;48.042;10.088;2022-10-31T17:20:26;95254.94;;;13.86;64.63
75166;BME280;63747;48.042;10.088;2022-10-31T17:23:27;95262.81;;;13.73;65.08
75166;BME280;63747;48.042;10.088;2022-10-31T17:26:28;95261.25;;;13.57;64.98
75166;BME280;63747;48.042;10.088;2022-10-31T17:29:29;95260.41;;;13.56;64.97
75166;BME280;63747;48.042;10.088;2022-10-31T17:32:30;95267.31;;;13.51;64.76
75166;BME280;63747;48.042;10.088;2022-10-31T17:35:30;95262.00;;;13.29;65.46
75166;BME280;63747;48.042;10.088;2022-10-31T17:38:33;95265.69;;;13.14;65.85
75166;BME280;63747;48.042;10.088;2022-10-31T17:41:35;95267.19;;;13.01;65.95
75166;BME280;63747;48.042;10.088;2022-10-31T17:44:35;95267.09;;;12.95;66.10
75166;BME280;63747;48.042;10.088;2022-10-31T17:47:39;95274.00;;;12.74;67.10
75166;BME280;63747;48.042;10.088;2022-10-31T17:50:40;95263.63;;;12.79;66.59
75166;BME280;63747;48.042;10.088;2022-10-31T17:53:43;95276.84;;;12.88;65.98
75166;BME280;63747;48.042;10.088;2022-10-31T17:56:45;95263.25;;;12.83;65.37